Time;durP1;ratioP1;P1;durP2;ratioP2;P2;SDS_P1;SDS_P2;PMS_P1;PMS_P2;Temp;Humidity;BMP_temperature;BMP_pressure;BME280_temperature;BME280_humidity;BME280_pressure;Samples;Min_cycle;Max_cycle;Signal;HPM_P1;HPM_P2
2023/01/12 04:43:00;;;;;;;29.48;4.97;;;11.30;99.90;;;10.47;100.00;101547.72;4168618;28;20035;-72
2023/01/12 04:45:01;;;;;;;20.92;3.75;;;11.30;99.90;;;10.42;100.00;101536.72;4154061;28;20042;-72
2023/01/12 04:47:02;;;;;;;29.90;6.10;;;11.30;99.90;;;10.38;100.00;101561.72;4170563;28;20029;-73
2023/01/12 04:49:03;;;;;;;26.75;3.97;;;11.20;99.90;;;10.47;100.00;101542.44;4170411;28;20040;-72
2023/01/12 04:51:04;;;;;;;29.17;4.72;;;11.20;99.90;;;10.47;100.00;101542.44;4162080;28;20022;-72
2023/01/12 04:53:08;;;;;;;34.50;4.70;;;11.20;99.90;;;10.36;100.00;101539.06;4177323;28;20080;-72
2023/01/12 04:55:09;;;;;;;32.08;6.38;;;11.20;99.90;;;10.38;100.00;101527.41;4152431;28;20091;-72
2023/01/12 04:57:10;;;;;;;29.45;4.25;;;11.10;99.90;;;10.28;100.00;101542.38;4170714;28;20026;-73
2023/01/12 04:59:10;;;;;;;30.52;4.30;;;11.10;99.90;;;10.27;100.00;101547.81;4170346;28;20032;-72
2023/01/12 05:01:18;;;;;;;32.30;5.07;;;11.10;99.90;;;10.27;100.00;101534.63;4157060;28;20049;-72
2023/01/12 05:04:15;;;;;;;34.90;5.20;;;11.00;99.90;;;10.26;100.00;101535.56;4152547;28;20426;-72
2023/01/12 05:06:16;;;;;;;34.20;4.55;;;11.00;99.90;;;10.22;100.00;101542.06;4170279;28;20017;-72
2023/01/12 09:16:52;;;;;;;24.35;4.45;;;12.40;99.90;;;11.58;100.00;101422.13;4152267;28;20570;-76
2023/01/12 09:18:54;;;;;;;34.25;5.63;;;12.40;99.90;;;11.64;100.00;101415.41;4174448;28;20504;-77
2023/01/12 09:21:03;;;;;;;25.73;5.30;;;12.50;99.90;;;11.73;100.00;101411.09;4150016;28;20077;-76
2023/01/12 09:23:04;;;;;;;27.40;4.63;;;12.50;99.90;;;11.77;100.00;101413.28;4168598;28;20033;-77
2023/01/12 09:25:05;;;;;;;23.67;4.20;;;12.50;99.90;;;11.73;100.00;101426.94;4166049;28;20424;-77
2023/01/12 09:27:06;;;;;;;21.58;5.38;;;12.50;99.90;;;11.77;100.00;101431.78;4159559;28;20037;-77
2023/01/12 09:29:10;;;;;;;16.63;4.25;;;12.60;99.90;;;11.78;100.00;101419.41;4153162;28;20026;-77
2023/01/12 09:31:17;;;;;;;25.65;5.85;;;12.60;99.90;;;11.82;100.00;101411.03;4135492;28;20026;-76
2023/01/12 09:33:18;;;;;;;27.60;5.45;;;12.60;99.90;;;11.85;100.00;101410.75;4154526;28;20038;-77
2023/01/12 09:35:20;;;;;;;26.30;5.88;;;12.70;99.90;;;11.93;100.00;101424.03;4151834;28;20018;-76
2023/01/12 09:37:21;;;;;;;27.92;6.13;;;12.70;99.90;;;11.95;100.00;101415.94;4157646;28;20481;-76
2023/01/12 09:39:22;;;;;;;29.63;6.35;;;12.70;99.90;;;11.95;100.00;101408.84;4153067;28;20037;-76
2023/01/12 09:48:49;;;;;;;27.25;5.15;;;12.90;99.90;;;12.13;100.00;101425.59;4158963;28;20028;-79
2023/01/12 09:51:15;;;;;;;31.10;6.63;;;12.90;99.90;;;12.14;100.00;101416.69;4160152;28;20064;-78
2023/01/12 09:53:31;;;;;;;21.58;4.10;;;12.90;99.90;;;12.15;100.00;101407.78;4140310;28;20054;-76
2023/01/12 09:56:09;;;;;;;22.27;4.85;;;13.00;99.90;;;12.22;100.00;101429.13;4151039;28;20037;-76
2023/01/12 09:58:53;;;;;;;27.23;5.22;;;13.00;99.90;;;12.21;100.00;101428.31;4140823;28;20073;-76
2023/01/12 10:00:56;;;;;;;25.63;5.72;;;13.00;99.90;;;12.26;100.00;101429.69;4153715;28;20049;-78
2023/01/12 10:03:09;;;;;;;21.17;4.20;;;13.00;99.90;;;12.23;100.00;101427.34;4135626;28;20061;-78
2023/01/12 10:05:52;;;;;;;32.60;5.38;;;13.00;99.90;;;12.27;100.00;101431.34;4160341;28;20036;-76
2023/01/12 10:07:55;;;;;;;28.65;4.30;;;13.10;99.90;;;12.21;100.00;101420.38;4141532;28;20148;-76
2023/01/12 10:09:57;;;;;;;24.98;5.82;;;13.10;99.90;;;12.23;100.00;101414.09;4150797;28;20105;-78
2023/01/12 10:12:40;;;;;;;25.75;6.78;;;13.10;99.90;;;12.27;100.00;101410.19;4151999;28;20018;-78
2023/01/12 10:14:56;;;;;;;22.98;3.85;;;13.10;99.90;;;12.33;100.00;101428.09;4152110;28;20037;-77
2023/01/12 10:17:12;;;;;;;14.52;3.28;;;13.10;99.90;;;12.34;100.00;101427.09;4159350;28;20436;-77
2023/01/12 10:19:41;;;;;;;18.55;4.45;;;13.10;99.90;;;12.24;100.00;101431.66;4151806;28;20097;-77
2023/01/12 10:21:43;;;;;;;17.80;4.28;;;13.10;99.90;;;12.18;100.00;101449.75;4152120;28;20029;-77
2023/01/12 10:23:44;;;;;;;12.82;3.85;;;13.10;99.90;;;12.12;100.00;101434.53;4151691;28;20048;-77
2023/01/12 10:25:54;;;;;;;13.10;2.90;;;13.00;99.90;;;12.11;100.00;101427.56;4163737;28;20025;-77
2023/01/12 10:27:58;;;;;;;16.42;3.17;;;13.00;99.90;;;12.05;100.00;101417.56;4140959;28;20152;-77
2023/01/12 10:30:01;;;;;;;23.27;3.97;;;12.90;99.90;;;12.06;100.00;101416.59;4150543;28;20084;-77
2023/01/12 10:32:02;;;;;;;22.33;4.22;;;12.90;99.90;;;12.10;100.00;101401.25;4134292;28;20125;-77
2023/01/12 10:34:09;;;;;;;19.83;4.50;;;13.00;99.90;;;12.18;100.00;101417.22;4151804;28;20527;-77
2023/01/12 10:36:18;;;;;;;17.40;3.47;;;13.00;99.90;;;12.20;100.00;101400.22;4150862;28;20061;-77
2023/01/12 10:38:26;;;;;;;23.45;4.55;;;13.00;99.90;;;12.18;100.00;101401.34;4152111;28;20022;-77
2023/01/12 10:40:33;;;;;;;28.80;4.72;;;13.00;99.90;;;12.16;100.00;101403.28;4167226;28;20029;-77
2023/01/12 10:45:24;;;;;;;20.73;3.78;;;13.10;99.90;;;12.37;100.00;101400.34;4168128;28;20044;-77
2023/01/12 10:47:25;;;;;;;23.30;4.55;;;13.10;99.90;;;12.41;100.00;101396.44;4161990;28;20056;-77
2023/01/12 10:49:26;;;;;;;27.33;5.32;;;13.20;99.90;;;12.51;100.00;101399.84;4152522;28;20034;-77
2023/01/12 10:51:35;;;;;;;21.13;4.13;;;13.30;99.90;;;12.60;100.00;101404.22;4152318;28;20033;-77
2023/01/12 10:53:51;;;;;;;24.08;4.53;;;13.30;99.90;;;12.62;100.00;101389.84;4139245;28;20045;-77
2023/01/12 10:55:52;;;;;;;22.80;4.20;;;13.40;99.90;;;12.64;100.00;101387.84;4151037;28;20026;-77
2023/01/12 10:57:53;;;;;;;21.75;4.05;;;13.50;99.90;;;12.65;100.00;101388.69;4163857;28;20029;-77
2023/01/12 10:59:58;;;;;;;29.33;6.90;;;13.50;99.90;;;12.63;100.00;101385.38;4167457;28;20067;-77
2023/01/12 11:02:07;;;;;;;23.83;3.80;;;13.40;99.90;;;12.66;100.00;101408.91;4168770;28;20072;-77
2023/01/12 11:04:14;;;;;;;24.42;5.47;;;13.40;99.90;;;12.61;100.00;101382.03;4168609;28;20029;-77
2023/01/12 11:06:29;;;;;;;19.05;3.97;;;13.40;99.90;;;12.56;100.00;101368.44;4158407;28;20026;-77
2023/01/12 11:08:31;;;;;;;19.98;4.63;;;13.40;99.90;;;12.59;100.00;101376.06;4152435;28;20030;-77
2023/01/12 11:10:37;;;;;;;19.65;3.75;;;13.30;99.90;;;12.46;100.00;101378.25;4151109;28;20382;-77
2023/01/12 11:12:39;;;;;;;30.05;6.07;;;13.30;99.90;;;12.57;100.00;101364.81;4153874;28;20102;-77
2023/01/12 11:14:41;;;;;;;23.15;4.45;;;13.40;99.90;;;12.59;100.00;101368.97;4139475;28;20432;-77
2023/01/12 11:16:49;;;;;;;25.40;3.83;;;13.40;99.90;;;12.61;100.00;101377.56;4156664;28;20508;-77
2023/01/12 11:19:22;;;;;;;24.30;4.95;;;13.40;99.90;;;12.61;100.00;101361.69;4156165;28;20034;-77
2023/01/12 11:21:28;;;;;;;18.23;4.50;;;13.40;99.90;;;12.60;100.00;101364.50;4150619;28;20041;-77
2023/01/12 11:23:49;;;;;;;28.60;6.85;;;13.40;99.90;;;12.57;100.00;101360.34;4151032;28;20041;-77
2023/01/12 11:25:52;;;;;;;31.05;7.43;;;13.40;99.90;;;12.48;100.00;101371.03;4150375;28;20049;-77
2023/01/12 11:28:26;;;;;;;25.83;5.43;;;13.30;99.90;;;12.52;100.00;101373.19;4157416;28;20036;-77
2023/01/12 11:30:45;;;;;;;28.80;5.20;;;13.30;99.90;;;12.49;100.00;101362.91;4167197;28;20057;-77
2023/01/12 11:33:07;;;;;;;21.40;4.43;;;13.30;99.90;;;12.41;100.00;101352.28;4168589;28;20077;-77
2023/01/12 11:35:23;;;;;;;21.10;4.00;;;13.20;99.90;;;12.47;100.00;101338.44;4167372;28;20028;-77
2023/01/12 11:37:24;;;;;;;24.65;4.70;;;13.20;99.90;;;12.39;100.00;101342.84;4164758;28;20018;-77
2023/01/12 11:39:28;;;;;;;23.08;3.88;;;13.20;99.90;;;12.29;100.00;101340.28;4152085;28;20060;-77
2023/01/12 11:44:35;;;;;;;26.52;5.07;;;13.10;99.90;;;12.43;100.00;101330.94;4151986;28;20165;-77
2023/01/12 11:46:52;;;;;;;15.57;3.80;;;13.20;99.90;;;12.44;100.00;101345.84;4150442;28;20463;-77
2023/01/12 11:49:18;;;;;;;24.80;4.20;;;13.20;99.90;;;12.51;100.00;101334.50;4140357;28;20030;-77
2023/01/12 11:51:19;;;;;;;21.17;5.07;;;13.30;99.90;;;12.61;100.00;101321.16;4150774;28;20065;-75
2023/01/12 11:53:23;;;;;;;20.13;3.47;;;13.40;99.90;;;12.67;100.00;101318.72;4160492;28;20110;-75
2023/01/12 11:56:08;;;;;;;21.45;5.35;;;13.40;99.90;;;12.68;100.00;101314.28;4165502;28;20034;-75
2023/01/12 11:58:41;;;;;;;13.65;4.30;;;13.40;99.90;;;12.71;100.00;101319.25;4141335;28;20034;-75
2023/01/12 12:01:19;;;;;;;25.08;4.45;;;13.50;99.90;;;12.65;100.00;101311.94;4154264;28;20026;-75
2023/01/12 12:04:13;;;;;;;28.05;5.13;;;13.40;99.90;;;12.39;100.00;101324.31;4154072;28;20030;-75
2023/01/12 12:06:56;;;;;;;30.15;6.78;;;13.30;99.90;;;12.09;100.00;101313.16;4154203;28;20030;-75
2023/01/12 12:09:21;;;;;;;24.23;4.65;;;13.00;99.90;;;12.05;100.00;101306.50;4162700;28;20060;-76
2023/01/12 12:11:38;;;;;;;30.10;5.35;;;12.90;99.90;;;12.07;100.00;101306.34;4170316;28;20030;-75
2023/01/12 12:14:37;;;;;;;26.95;5.32;;;12.80;99.90;;;12.06;100.00;101302.06;4159900;28;20104;-75
2023/01/12 12:16:57;;;;;;;17.35;4.43;;;12.80;99.90;;;12.10;100.00;101291.00;4147185;28;20057;-75
2023/01/12 12:19:27;;;;;;;26.25;4.65;;;12.80;99.90;;;12.18;100.00;101299.00;4156897;28;20034;-75
2023/01/12 12:21:53;;;;;;;19.52;4.60;;;12.90;99.90;;;12.23;100.00;101284.50;4149958;28;20106;-75
2023/01/12 12:24:36;;;;;;;28.65;5.13;;;13.00;99.90;;;12.38;100.00;101293.53;4153042;28;20041;-75
2023/01/12 12:26:54;;;;;;;30.50;5.47;;;13.10;99.90;;;12.35;100.00;101272.69;4157166;28;20136;-77
2023/01/12 12:29:34;;;;;;;26.52;3.88;;;13.20;99.90;;;12.39;100.00;101271.41;4166872;28;20542;-76
2023/01/12 12:32:27;;;;;;;26.83;5.18;;;13.20;99.90;;;12.48;100.00;101259.91;4168766;28;20505;-76
2023/01/12 12:34:44;;;;;;;20.45;4.70;;;13.30;99.90;;;12.40;100.00;101247.44;4170199;28;20025;-77
2023/01/12 12:37:19;;;;;;;20.77;3.72;;;13.20;99.90;;;12.46;100.00;101245.97;4170151;28;20029;-77
2023/01/12 12:39:23;;;;;;;19.40;4.97;;;13.30;99.90;;;12.53;100.00;101245.19;4144129;28;20511;-76
2023/01/12 12:45:17;;;;;;;16.23;3.92;;;13.40;99.90;;;12.71;100.00;101234.53;4168897;28;20416;-76
2023/01/12 12:47:50;;;;;;;16.17;4.10;;;13.50;99.90;;;12.90;100.00;101244.06;4151130;28;20038;-76
2023/01/12 12:49:55;;;;;;;15.95;3.38;;;13.70;99.90;;;12.98;100.00;101229.03;4152507;28;20397;-77
2023/01/12 12:51:57;;;;;;;;;;;13.70;99.90;;;13.04;100.00;101225.75;4139746;28;20052;-77
2023/01/12 12:54:01;;;;;;;20.67;4.05;;;13.90;99.90;;;13.08;100.00;101232.41;4152022;28;19910;-77
2023/01/12 12:56:13;;;;;;;22.20;4.47;;;13.90;99.90;;;13.22;100.00;101217.75;4152279;28;20527;-77
2023/01/12 12:58:20;;;;;;;21.20;4.38;;;14.00;99.90;;;13.35;100.00;101204.03;4167778;28;20038;-77
2023/01/12 13:00:41;;;;;;;17.15;3.58;;;14.10;99.90;;;13.23;100.00;101222.84;4169294;28;20081;-77
2023/01/12 13:03:00;;;;;;;23.20;3.95;;;14.10;99.90;;;13.11;100.00;101220.69;4154810;28;20026;-77
2023/01/12 13:05:04;;;;;;;19.80;4.22;;;14.00;99.90;;;13.01;100.00;101204.06;4168172;28;20025;-77
2023/01/12 13:07:06;;;;;;;17.70;4.13;;;13.90;99.90;;;12.98;100.00;101210.50;4145030;28;20517;-77
2023/01/12 13:09:16;;;;;;;15.40;2.95;;;13.90;99.90;;;13.01;100.00;101186.34;4153842;28;20366;-77
2023/01/12 13:11:18;;;;;;;17.27;3.28;;;13.90;99.90;;;12.99;100.00;101175.06;4152559;28;20030;-77
2023/01/12 13:13:31;;;;;;;13.30;2.65;;;13.90;99.90;;;12.98;100.00;101168.13;4152809;28;20045;-77
2023/01/12 13:15:35;;;;;;;24.45;3.75;;;13.80;99.90;;;12.94;100.00;101169.44;4152507;28;20481;-77
2023/01/12 13:17:43;;;;;;;21.70;4.47;;;13.80;99.90;;;12.84;100.00;101165.28;4154033;28;20066;-77
2023/01/12 13:20:09;;;;;;;19.40;4.65;;;13.80;99.90;;;12.93;100.00;101167.78;4155203;28;20445;-77
2023/01/12 13:22:31;;;;;;;18.45;4.70;;;13.70;99.90;;;12.66;100.00;101178.63;4152488;28;20061;-77
2023/01/12 13:24:40;;;;;;;21.80;3.97;;;13.60;99.90;;;12.57;100.00;101179.56;4146936;28;20119;-77
2023/01/12 13:26:43;;;;;;;17.25;3.95;;;13.50;99.90;;;12.43;100.00;101177.47;4136271;28;20030;-76
2023/01/12 13:28:44;;;;;;;22.67;5.15;;;13.40;99.90;;;12.21;100.00;101186.81;4165051;28;20036;-77
2023/01/12 13:30:48;;;;;;;28.13;5.10;;;13.10;99.90;;;12.06;100.00;101183.06;4153042;28;20033;-77
2023/01/12 13:33:22;;;;;;;24.40;4.15;;;12.90;99.90;;;11.91;100.00;101177.50;4152445;28;20058;-77
2023/01/12 13:35:32;;;;;;;28.55;5.88;;;12.80;99.90;;;11.90;100.00;101175.84;4153323;28;20456;-77
2023/01/12 13:38:06;;;;;;;24.27;5.80;;;12.70;99.90;;;11.75;100.00;101174.72;4164508;28;20033;-79
2023/01/12 13:40:27;;;;;;;24.77;5.57;;;12.60;99.90;;;11.72;100.00;101177.66;4152397;28;20029;-79
2023/01/12 13:44:48;;;;;;;27.27;5.47;;;12.50;99.90;;;11.73;100.00;101146.78;4153102;28;20072;-78
2023/01/12 13:46:52;;;;;;;24.45;5.22;;;12.50;99.90;;;11.75;100.00;101156.22;4136984;28;20057;-78
2023/01/12 13:48:54;;;;;;;;;;;12.50;99.90;;;11.79;100.00;101147.00;4168884;28;20033;-79
2023/01/12 13:51:03;;;;;;;21.60;5.03;;;12.60;99.90;;;11.86;100.00;101155.97;4168164;28;19913;-79
2023/01/12 13:53:18;;;;;;;28.35;5.70;;;12.60;99.90;;;11.97;100.00;101145.16;4168308;28;20025;-78
2023/01/12 13:55:22;;;;;;;25.52;6.25;;;12.70;99.90;;;11.99;100.00;101145.84;4169669;28;20033;-78
2023/01/12 13:57:27;;;;;;;30.45;5.22;;;12.80;99.90;;;11.94;100.00;101134.91;4159187;28;20026;-78
2023/01/12 13:59:29;;;;;;;25.73;5.57;;;12.80;99.90;;;11.78;100.00;101121.56;4151490;28;20116;-77
2023/01/12 14:01:38;;;;;;;22.38;4.47;;;12.70;99.90;;;11.71;100.00;101132.91;4167024;28;20033;-76
2023/01/12 14:04:07;;;;;;;25.05;4.35;;;12.60;99.90;;;11.71;100.00;101127.63;4167446;28;20033;-77
2023/01/12 14:06:36;;;;;;;28.92;3.92;;;12.50;99.90;;;11.78;100.00;101137.41;4167038;28;20025;-76
2023/01/12 14:09:01;;;;;;;29.13;4.25;;;12.50;99.90;;;11.73;100.00;101139.69;4159939;28;20025;-80
2023/01/12 14:11:28;;;;;;;21.77;3.45;;;12.50;99.90;;;11.65;100.00;101137.78;4168570;28;20052;-78
2023/01/12 14:17:47;;;;;;;24.13;4.22;;;12.50;99.90;;;11.62;100.00;101139.88;4167744;28;20079;-78
2023/01/12 14:18:45;;;;;;;16.90;4.53;;;12.40;99.90;;;11.62;100.00;101147.81;4152237;28;20097;-77
2023/01/12 14:20:53;;;;;;;22.02;5.15;;;12.40;99.90;;;11.71;100.00;101107.28;4150771;28;20441;-77
2023/01/12 14:23:27;;;;;;;16.83;4.15;;;12.50;99.90;;;11.86;100.00;101124.25;4150788;28;20032;-78
2023/01/12 14:25:28;;;;;;;28.35;4.68;;;12.60;99.90;;;11.89;100.00;101102.78;4150806;28;20037;-77
2023/01/12 14:27:29;;;;;;;31.23;8.15;;;12.60;99.90;;;11.90;100.00;101103.63;4152918;28;20087;-78
2023/01/12 14:29:30;;;;;;;26.80;7.40;;;12.70;99.90;;;12.01;100.00;101106.84;4168462;28;20435;-78
2023/01/12 14:31:42;;;;;;;42.35;10.70;;;12.70;99.90;;;12.02;100.00;101100.56;4166810;28;20021;-78
2023/01/12 14:33:56;;;;;;;21.70;4.53;;;12.80;99.90;;;11.94;100.00;101095.25;4167113;28;20071;-77
2023/01/12 14:36:03;;;;;;;;;;;12.80;99.90;;;11.95;100.00;101096.03;4167305;28;20017;-78
2023/01/12 14:38:04;;;;;;;21.05;4.57;;;12.70;99.90;;;11.83;100.00;101103.41;4157829;28;19909;-77
2023/01/12 14:40:15;;;;;;;27.15;5.82;;;12.70;99.90;;;11.89;100.00;101083.44;4150830;28;20033;-77
2023/01/12 14:47:21;;;;;;;26.65;5.78;;;12.70;99.90;;;11.85;100.00;101075.03;4154398;28;20117;-78
2023/01/12 14:49:29;;;;;;;23.40;5.70;;;12.70;99.90;;;11.74;100.00;101093.75;4167191;28;20543;-77
2023/01/12 14:51:37;;;;;;;24.30;6.32;;;12.60;99.90;;;11.69;100.00;101066.94;4167163;28;20108;-77
2023/01/12 14:53:40;;;;;;;31.08;6.68;;;12.60;99.90;;;11.67;100.00;101079.50;4166951;28;20459;-77
2023/01/12 14:55:41;;;;;;;34.72;10.55;;;12.50;99.90;;;11.68;100.00;101067.13;4167136;28;20079;-77
2023/01/12 14:57:46;;;;;;;31.27;7.55;;;12.50;99.90;;;11.75;100.00;101066.38;4156941;28;20444;-77
2023/01/12 14:59:48;;;;;;;28.13;6.25;;;12.50;99.90;;;11.75;100.00;101069.00;4150582;28;20121;-77
2023/01/12 15:02:13;;;;;;;31.77;5.85;;;12.50;99.90;;;11.85;100.00;101079.47;4151487;28;20026;-77
2023/01/12 15:04:23;;;;;;;28.05;6.40;;;12.50;99.90;;;11.70;100.00;101073.94;4161360;28;20101;-77
2023/01/12 15:06:25;;;;;;;29.48;8.38;;;12.50;99.90;;;11.71;100.00;101072.13;4165139;28;20050;-77
2023/01/12 15:08:26;;;;;;;24.23;7.38;;;12.50;99.90;;;11.61;100.00;101074.84;4150255;28;20032;-77
2023/01/12 15:10:36;;;;;;;27.75;7.03;;;12.50;99.90;;;11.59;100.00;101079.41;4154796;28;20042;-78
2023/01/12 15:12:52;;;;;;;32.28;6.35;;;12.40;99.90;;;11.57;100.00;101091.97;4154311;28;20132;-76
2023/01/12 15:14:53;;;;;;;28.10;4.45;;;12.30;99.90;;;11.61;100.00;101080.13;4150462;28;20512;-76
2023/01/12 15:26:13;;;;;;;24.52;5.00;;;12.60;99.90;;;11.79;100.00;101088.88;4144737;28;20095;-77
2023/01/12 15:28:14;;;;;;;26.67;4.47;;;12.60;99.90;;;11.84;100.00;101083.94;4143657;28;20465;-78
2023/01/12 15:30:16;;;;;;;26.02;6.75;;;12.60;99.90;;;11.81;100.00;101086.88;4153081;28;20432;-77
2023/01/12 15:32:29;;;;;;;20.98;5.82;;;12.60;99.90;;;11.79;100.00;101106.53;4154555;28;20026;-77
2023/01/12 15:34:31;;;;;;;18.02;5.97;;;12.60;99.90;;;11.85;100.00;101088.25;4153508;28;20022;-78
2023/01/12 15:36:32;;;;;;;23.58;5.00;;;12.60;99.90;;;11.78;100.00;101079.28;4153287;28;20037;-79
2023/01/12 15:38:33;;;;;;;18.80;4.63;;;12.60;99.90;;;11.82;100.00;101101.78;4150685;28;20504;-78
2023/01/12 15:40:34;;;;;;;24.23;4.60;;;12.60;99.90;;;11.78;100.00;101095.13;4169801;28;20030;-77
2023/01/12 15:42:34;;;;;;;15.82;3.53;;;12.60;99.90;;;11.75;100.00;101095.44;4171025;28;20117;-78
2023/01/12 15:44:37;;;;;;;24.02;3.95;;;12.50;99.90;;;11.74;100.00;101095.59;4169632;28;20032;-78
2023/01/12 15:46:38;;;;;;;18.50;3.15;;;12.60;99.90;;;11.75;100.00;101086.69;4185813;28;20119;-78
2023/01/12 15:48:39;;;;;;;18.63;3.80;;;12.60;99.90;;;11.77;100.00;101090.00;4140424;28;20582;-78
2023/01/12 15:50:43;;;;;;;14.60;4.18;;;12.50;99.90;;;11.72;100.00;101071.97;4153247;28;20076;-79
2023/01/12 15:52:44;;;;;;;;;;;12.50;99.90;;;11.64;100.00;101085.09;4153446;28;20045;-79
2023/01/12 15:54:45;;;;;;;23.95;5.07;;;12.50;99.90;;;11.66;100.00;101060.16;4153217;28;19909;-78
2023/01/12 15:56:47;;;;;;;24.83;6.90;;;12.50;99.90;;;11.62;100.00;101076.47;4158898;28;20018;-78
2023/01/12 15:58:48;;;;;;;24.67;5.93;;;12.50;99.90;;;11.62;100.00;101076.47;4153082;28;20042;-78
2023/01/12 16:00:50;;;;;;;30.90;8.48;;;12.40;99.90;;;11.60;100.00;101068.72;4154315;28;20026;-78
2023/01/12 16:02:52;;;;;;;14.52;4.32;;;12.40;99.90;;;11.63;100.00;101070.22;4152805;28;20084;-78
2023/01/12 16:04:53;;;;;;;27.00;5.55;;;12.40;99.90;;;11.64;100.00;101070.06;4136685;28;20053;-79
2023/01/12 16:06:54;;;;;;;19.58;3.35;;;12.40;99.90;;;11.75;100.00;101060.25;4153941;28;20022;-78
2023/01/12 16:08:55;;;;;;;22.38;3.72;;;12.40;99.90;;;11.56;100.00;101061.25;4161839;28;20024;-78
2023/01/12 16:11:08;;;;;;;26.85;4.03;;;12.40;99.90;;;11.63;100.00;101078.13;4185803;28;20037;-78
2023/01/12 16:13:10;;;;;;;20.67;4.20;;;12.40;99.90;;;11.54;100.00;101065.84;4169294;28;20025;-78
2023/01/12 16:15:17;;;;;;;15.27;5.68;;;12.40;99.90;;;11.47;100.00;101078.84;4169029;28;20021;-77
2023/01/12 16:17:18;;;;;;;20.80;4.10;;;12.30;99.90;;;11.59;100.00;101082.06;4166915;28;20054;-78
2023/01/12 16:19:21;;;;;;;20.00;3.63;;;12.30;99.90;;;11.53;100.00;101074.75;4152105;28;20030;-78
2023/01/12 16:21:22;;;;;;;21.90;4.85;;;12.30;99.90;;;11.54;100.00;101090.47;4169138;28;20026;-79
2023/01/12 16:23:22;;;;;;;18.95;3.60;;;12.30;99.90;;;11.57;100.00;101081.41;4152809;28;20084;-78
2023/01/12 16:25:23;;;;;;;17.10;4.22;;;12.30;99.90;;;11.45;100.00;101079.97;4152417;28;20524;-79
2023/01/12 16:27:26;;;;;;;18.05;4.65;;;12.30;99.90;;;11.48;100.00;101074.41;4166021;28;20040;-78
2023/01/12 16:29:26;;;;;;;15.80;2.90;;;12.20;99.90;;;11.46;100.00;101079.00;4157691;28;20034;-78
2023/01/12 16:31:27;;;;;;;22.40;4.20;;;12.20;99.90;;;11.36;100.00;101071.16;4169946;28;20032;-78
2023/01/12 16:33:28;;;;;;;19.60;5.38;;;12.20;99.90;;;11.27;100.00;101079.16;4168980;28;20116;-78
2023/01/12 16:35:32;;;;;;;20.05;4.38;;;12.10;99.90;;;11.23;100.00;101083.13;4169870;28;20080;-77
2023/01/12 16:37:34;;;;;;;15.93;3.17;;;12.00;99.90;;;11.24;100.00;101090.03;4163946;28;20092;-77
2023/01/12 16:39:35;;;;;;;16.92;3.45;;;12.00;99.90;;;11.11;100.00;101085.97;4151822;28;20026;-78
2023/01/12 16:41:36;;;;;;;14.00;3.88;;;12.00;99.90;;;11.11;100.00;101082.50;4152271;28;20065;-78
2023/01/12 16:43:37;;;;;;;21.95;4.35;;;11.90;99.90;;;11.11;100.00;101096.53;4153594;28;20061;-78
2023/01/12 16:45:41;;;;;;;25.27;4.40;;;11.90;99.90;;;11.09;100.00;101109.06;4153635;28;20069;-78
2023/01/12 16:47:42;;;;;;;17.27;4.30;;;11.90;99.90;;;11.04;100.00;101098.13;4161294;28;20459;-77
2023/01/12 16:49:46;;;;;;;21.25;4.38;;;11.80;99.90;;;11.00;100.00;101102.03;4169908;28;20041;-78
2023/01/12 16:51:47;;;;;;;17.63;4.15;;;11.80;99.90;;;11.03;100.00;101112.28;4168576;28;20030;-78
2023/01/12 16:53:48;;;;;;;15.30;3.55;;;11.80;99.90;;;10.95;100.00;101106.94;4169964;28;20029;-77
2023/01/12 16:55:49;;;;;;;21.48;4.97;;;11.80;99.90;;;10.94;100.00;101120.28;4169037;28;20032;-79
2023/01/12 16:57:50;;;;;;;19.42;3.08;;;11.80;99.90;;;10.97;100.00;101114.69;4157384;28;20424;-78
2023/01/12 16:59:51;;;;;;;20.83;3.45;;;11.80;99.90;;;11.03;100.00;101116.75;4152155;28;20034;-78
2023/01/12 17:01:52;;;;;;;21.95;3.80;;;11.80;99.90;;;11.05;100.00;101131.44;4153261;28;20022;-78
2023/01/12 17:03:56;;;;;;;25.33;5.88;;;11.80;99.90;;;11.01;100.00;101135.38;4153197;28;20513;-78
2023/01/12 17:05:57;;;;;;;24.02;5.53;;;11.80;99.90;;;10.98;100.00;101129.56;4156331;28;20026;-78
2023/01/12 17:07:58;;;;;;;27.58;5.88;;;11.80;99.90;;;10.95;100.00;101129.88;4149222;28;20034;-77
2023/01/12 17:09:59;;;;;;;24.15;5.05;;;11.80;99.90;;;10.95;100.00;101137.78;4152807;28;20105;-78
2023/01/12 17:12:00;;;;;;;26.42;6.55;;;11.80;99.90;;;11.04;100.00;101145.66;4153289;28;20022;-79
2023/01/12 17:14:21;;;;;;;30.27;6.97;;;11.70;99.90;;;11.05;100.00;101136.72;4151836;28;20094;-78
2023/01/12 17:16:24;;;;;;;25.33;5.25;;;11.80;99.90;;;11.12;100.00;101139.59;4155788;28;20056;-77
2023/01/12 17:18:26;;;;;;;27.40;4.80;;;11.80;99.90;;;11.08;100.00;101128.50;4160634;28;20029;-78
2023/01/12 17:20:27;;;;;;;25.15;5.30;;;11.90;99.90;;;11.04;100.00;101123.69;4152149;28;20045;-78
2023/01/12 17:22:30;;;;;;;29.80;6.50;;;11.80;99.90;;;11.00;100.00;101117.88;4152989;28;20034;-78
2023/01/12 17:24:33;;;;;;;26.42;7.57;;;11.80;99.90;;;10.99;100.00;101113.56;4152461;28;20026;-78
2023/01/12 17:26:36;;;;;;;26.95;4.80;;;11.80;99.90;;;11.01;100.00;101122.19;4153164;28;20544;-77
2023/01/12 17:28:38;;;;;;;23.35;6.38;;;11.80;99.90;;;11.00;100.00;101109.13;4164597;28;20037;-78
2023/01/12 17:30:39;;;;;;;19.38;4.88;;;11.80;99.90;;;10.96;100.00;101116.50;4167677;28;20572;-77
2023/01/12 17:32:40;;;;;;;27.30;7.20;;;11.70;99.90;;;10.91;100.00;101107.38;4169293;28;20057;-77
2023/01/12 17:34:42;;;;;;;36.35;6.93;;;11.70;99.90;;;10.86;100.00;101112.28;4167912;28;20465;-77
2023/01/12 17:36:43;;;;;;;26.95;7.95;;;11.70;99.90;;;10.93;100.00;101100.97;4162469;28;20113;-77
2023/01/12 17:38:44;;;;;;;28.23;6.72;;;11.70;99.90;;;10.99;100.00;101110.94;4154087;28;20457;-78
2023/01/12 17:40:44;;;;;;;17.42;5.55;;;11.70;99.90;;;10.86;100.00;101105.19;4152761;28;20029;-77
2023/01/12 17:43:05;;;;;;;30.25;4.97;;;11.60;99.90;;;10.80;100.00;101097.03;4152668;28;20029;-78
2023/01/12 17:45:06;;;;;;;26.80;6.03;;;11.60;99.90;;;10.83;100.00;101099.38;4151847;28;20034;-77
2023/01/12 17:47:08;;;;;;;21.58;6.93;;;11.60;99.90;;;10.84;100.00;101109.78;4156336;28;20025;-78
2023/01/12 17:49:11;;;;;;;24.98;4.93;;;11.60;99.90;;;10.87;100.00;101108.69;4152653;28;20127;-78
2023/01/12 17:51:13;;;;;;;20.52;6.25;;;11.60;99.90;;;10.82;100.00;101110.91;4151370;28;20100;-77
2023/01/12 17:53:16;;;;;;;22.20;4.93;;;11.60;99.90;;;10.80;100.00;101110.22;4135131;28;20061;-78
2023/01/12 17:55:17;;;;;;;22.08;5.70;;;11.60;99.90;;;10.82;100.00;101103.81;4152797;28;20017;-79
2023/01/12 17:57:18;;;;;;;20.45;4.10;;;11.60;99.90;;;10.80;100.00;101123.44;4158417;28;20025;-79
2023/01/12 17:59:24;;;;;;;19.23;4.10;;;11.60;99.90;;;10.87;100.00;101125.31;4167549;28;20021;-76
2023/01/12 18:01:28;;;;;;;21.35;4.35;;;11.60;99.90;;;10.84;100.00;101133.53;4167345;28;20075;-77
2023/01/12 18:03:29;;;;;;;20.83;4.18;;;11.60;99.90;;;10.90;100.00;101121.56;4167524;28;20029;-77
2023/01/12 18:05:30;;;;;;;15.27;3.35;;;11.60;99.90;;;10.80;100.00;101115.50;4167678;28;20033;-77
2023/01/12 18:07:31;;;;;;;17.15;5.40;;;11.60;99.90;;;10.89;100.00;101126.00;4156165;28;20405;-76
2023/01/12 18:09:32;;;;;;;15.57;2.78;;;11.60;99.90;;;10.95;100.00;101120.16;4152045;28;20034;-77
2023/01/12 18:11:33;;;;;;;17.58;3.70;;;11.70;99.90;;;10.93;100.00;101130.00;4151543;28;20036;-77
2023/01/12 18:13:34;;;;;;;15.52;3.45;;;11.60;99.90;;;10.96;100.00;101127.06;4151005;28;20053;-77